Aeroporto :







RITROVATECI SU...

 
LOGIN :

Iscrizione | Disclaimer

   EN    FR    IT 

 









Sommario :    VFR   VFR Marginale   IFR   IFR Intensivo   IFR Molto Intensivo
Visibilità : 
Base nubi : 
>= 8 km
>= 3000ft
5 / 8 km
1000 / 3000 ft
1500m / 5 km
500 / 1000 ft
800 / 1500m
200 / 500 ft
< 800m
< 200 ft
Simboli :   Temporali  Nebbia  Neve Forte  Precipitazioni Forti  Vento > 20 kt






- Altitudine del aeroporto : 461 ft
- Codice IATA : YYT


CYYT - St John's Int

ULTIMO METAR :
  • 291800Z 30024G30KT 15SM OVC008 06/06 A2943 RMK SF8 SLP971

METARs OBSOLETI :
  • 291738Z 29017G25KT 10SM OVC005 07/07 A2943 RMK SF8 SLP972
  • 291700Z 28017KT 2SM R29/4000VP6000FT/U R16/3000VP6000FT/U BR OVC003 07/07 A2940 RMK ST8 SLP961
  • 291642Z 28012G18KT 1/8SM R29/2000V2400FT/N R16/1800V2200FT/N FG VV001 06/06 A2940 RMK FG8 SLP961
  • 291600Z 29016KT 1/2SM R29/3500V4000FT/N R16/3000V3500FT/N FG VV002 06/06 A2938 RMK FG8 SLP955
  • 291551Z 29016G21KT 1/2SM R29/4000VP6000FT/D R16/3500VP6000FT/D FG VV002 06/05 A2939 RMK FG8 SLP956

TAF TAF CYYT
Valido dal 29 a 18 ore il 30 a 18 ore UTC


291738Z 2918/3018 28015G25KT 1SM -RA -DZ BR OVC002
TEMPO 2918/2919 6SM BR OVC006
BECMG 2918/2919 31015G25KT
FM291900 30018G28KT 6SM BR OVC006
TEMPO 2919/2921 P6SM NSW SCT006 OVC015
FM292100 30025G35KT P6SM BKN015
FM300300 29025G35KT P6SM SCT015
BECMG 3010/3012 29018G28KT
FM301500 29012G22KT P6SM FEW025 RMK NXT FCST BY 300000Z
FIR CZQX / America del Nord



MetMap, La meteo Aeronautica in un colpo d'occhio ! - Copyright ORBIFLY Dicembre 2007 - Disclaimer

ORBIFLY MET'MAP TEAM :

Programmazione e sviluppo : Alexandra Zaïnal
Concezione : Baudouin d'Aumeries
Aiuto per la programmazione : Marc-Olivier Méhu
Supporto tecnico e logistico : Manuel Goepfert
Aiuto per la traduzione : Arnaldo La Scala

Contatto : metmap@orbifly.com




FONTI E CREDITI :

   NOAA